Aviation Digital Data Service (ADDS)

Output produced by METARs form (0645 UTC 03 December 2016)
found at http://www.aviationweather.gov/adds/metars/
 
KLGA 030537Z 0306/0406 28014G21KT P6SM BKN050 
     FM031400 31016G27KT P6SM BKN040 
     FM031900 31022G30KT P6SM BKN040 
     FM032200 31018G26KT P6SM SCT040 
     FM040500 32013KT P6SM FEW030